createdAt,value
2022-11-16T00:01:52.604Z,2.85
2022-11-16T00:04:38.075Z,2.86
2022-11-16T00:07:23.619Z,2.85
2022-11-16T00:10:09.707Z,2.84
2022-11-16T00:12:55.124Z,2.84
2022-11-16T00:15:40.682Z,2.84
2022-11-16T00:18:26.240Z,2.83
2022-11-16T00:21:12.041Z,2.81
2022-11-16T00:23:58.101Z,2.82
2022-11-16T00:26:44.609Z,2.84
2022-11-16T00:29:31.151Z,2.82
2022-11-16T00:32:16.350Z,2.80
2022-11-16T00:35:01.877Z,2.79
2022-11-16T00:37:47.399Z,2.76
2022-11-16T00:40:33.166Z,2.79
2022-11-16T00:43:18.532Z,2.76
2022-11-16T00:46:05.005Z,2.79
2022-11-16T00:48:50.407Z,2.81
2022-11-16T00:51:36.897Z,2.82
2022-11-16T00:54:22.489Z,2.81
2022-11-16T00:57:08.428Z,2.83
2022-11-16T00:59:54.589Z,2.83
2022-11-16T01:02:41.390Z,2.83
2022-11-16T01:05:26.915Z,2.86
2022-11-16T01:08:12.339Z,2.84
2022-11-16T01:11:17.902Z,2.85
2022-11-16T01:14:05.678Z,2.86
2022-11-16T01:16:51.289Z,2.86
2022-11-16T01:19:38.643Z,2.86
2022-11-16T01:22:24.858Z,2.87
2022-11-16T01:25:11.713Z,2.87
2022-11-16T01:27:57.060Z,2.88
2022-11-16T01:30:51.644Z,2.91
2022-11-16T01:33:37.273Z,2.91
2022-11-16T01:36:24.097Z,2.91
2022-11-16T01:39:13.041Z,2.89
2022-11-16T01:42:06.247Z,2.88
2022-11-16T01:44:57.669Z,2.88
2022-11-16T01:47:44.060Z,2.88
2022-11-16T01:50:31.092Z,2.89
2022-11-16T01:53:19.635Z,2.88
2022-11-16T01:56:09.617Z,2.90
2022-11-16T01:59:06.755Z,2.89
2022-11-16T02:01:52.422Z,2.92
2022-11-16T02:04:39.878Z,2.92
2022-11-16T02:08:04.264Z,2.96
2022-11-16T02:11:20.627Z,2.94
2022-11-16T02:14:51.191Z,2.97
2022-11-16T02:18:05.859Z,2.97
2022-11-16T02:21:17.286Z,2.96
2022-11-16T02:24:06.544Z,2.95
2022-11-16T02:27:07.432Z,2.99
2022-11-16T02:29:55.778Z,2.98
2022-11-16T02:32:52.139Z,2.96
2022-11-16T02:35:43.877Z,3.02
2022-11-16T02:38:35.416Z,3.02
2022-11-16T02:41:24.373Z,3.01
2022-11-16T02:44:16.004Z,3.05
2022-11-16T02:47:05.674Z,3.06
2022-11-16T02:49:56.792Z,3.06
2022-11-16T02:52:42.539Z,3.09
2022-11-16T02:55:32.735Z,3.10
2022-11-16T02:58:23.045Z,3.13
2022-11-16T03:01:15.233Z,3.13
2022-11-16T03:04:12.852Z,3.13
2022-11-16T03:07:01.287Z,3.13
2022-11-16T03:09:50.228Z,3.13
2022-11-16T03:12:36.125Z,3.15
2022-11-16T03:15:22.147Z,3.18
2022-11-16T03:18:09.083Z,3.18
2022-11-16T03:21:07.898Z,3.20
2022-11-16T03:23:54.034Z,3.21
2022-11-16T03:26:54.278Z,3.23
2022-11-16T03:29:47.951Z,3.24
2022-11-16T03:32:56.693Z,3.25
2022-11-16T03:35:59.715Z,3.26
2022-11-16T03:38:47.946Z,3.27
2022-11-16T03:41:37.301Z,3.26
2022-11-16T03:44:23.057Z,3.27
2022-11-16T03:47:08.618Z,3.27
2022-11-16T03:49:53.923Z,3.28
2022-11-16T03:52:41.533Z,3.28
2022-11-16T03:55:27.101Z,3.30
2022-11-16T03:58:13.043Z,3.30
2022-11-16T04:00:58.659Z,3.30
2022-11-16T04:03:45.642Z,3.30
2022-11-16T04:06:49.783Z,3.32
2022-11-16T04:09:54.032Z,3.34
2022-11-16T04:13:03.329Z,3.35
2022-11-16T04:16:07.612Z,3.37
2022-11-16T04:19:11.110Z,3.39
2022-11-16T04:22:32.032Z,3.42
2022-11-16T04:25:30.422Z,3.43
2022-11-16T04:28:17.580Z,3.43
2022-11-16T04:31:26.339Z,3.44
2022-11-16T04:34:38.948Z,3.46
2022-11-16T04:37:43.843Z,3.48
2022-11-16T04:40:29.639Z,3.50
2022-11-16T04:43:15.878Z,3.51
2022-11-16T04:46:21.469Z,3.53
2022-11-16T04:49:07.464Z,3.55
2022-11-16T04:51:52.975Z,3.56
2022-11-16T04:54:38.393Z,3.55
2022-11-16T04:57:24.579Z,3.57
2022-11-16T05:00:10.952Z,3.57
2022-11-16T05:03:01.467Z,3.55
2022-11-16T05:05:49.987Z,3.54
2022-11-16T05:08:35.968Z,3.51
2022-11-16T05:11:23.847Z,3.55
2022-11-16T05:14:11.027Z,3.55
2022-11-16T05:16:58.786Z,3.58
2022-11-16T05:20:03.940Z,3.58
2022-11-16T05:22:58.335Z,3.61
2022-11-16T05:25:49.155Z,3.62
2022-11-16T05:28:37.768Z,3.65
2022-11-16T05:31:24.826Z,3.66
2022-11-16T05:34:11.309Z,3.67
2022-11-16T05:36:58.388Z,3.68
2022-11-16T05:39:43.890Z,3.69
2022-11-16T05:42:29.371Z,3.71
2022-11-16T05:45:20.855Z,3.68
2022-11-16T05:48:07.295Z,3.71
2022-11-16T05:51:01.266Z,3.69
2022-11-16T05:53:51.489Z,3.68
2022-11-16T05:56:40.211Z,3.68
2022-11-16T05:59:25.576Z,3.68
2022-11-16T06:02:14.589Z,3.69
2022-11-16T06:05:02.318Z,3.71
2022-11-16T06:07:47.969Z,3.72
2022-11-16T06:10:34.553Z,3.74
2022-11-16T06:13:21.623Z,3.74
2022-11-16T06:16:10.395Z,3.73
2022-11-16T06:18:56.281Z,3.73
2022-11-16T06:21:42.860Z,3.74
2022-11-16T06:24:34.848Z,3.76
2022-11-16T06:27:21.768Z,3.75
2022-11-16T06:30:08.673Z,3.74
2022-11-16T06:32:54.351Z,3.73
2022-11-16T06:35:40.307Z,3.74
2022-11-16T06:38:27.895Z,3.74
2022-11-16T06:41:14.369Z,3.75
2022-11-16T06:44:03.929Z,3.74
2022-11-16T06:46:54.241Z,3.76
2022-11-16T06:49:39.685Z,3.72
2022-11-16T06:52:31.980Z,3.72
2022-11-16T06:55:17.492Z,3.73
2022-11-16T06:58:02.801Z,3.72
2022-11-16T07:00:50.552Z,3.72
2022-11-16T07:03:36.140Z,3.74
2022-11-16T07:06:22.679Z,3.77
2022-11-16T07:09:09.481Z,3.76
2022-11-16T07:11:55.292Z,3.72
2022-11-16T07:14:41.129Z,3.69
2022-11-16T07:17:28.384Z,3.65
2022-11-16T07:20:14.221Z,3.61
2022-11-16T07:23:02.312Z,3.59
2022-11-16T07:25:48.007Z,3.57
2022-11-16T07:28:47.731Z,3.54
2022-11-16T07:31:35.496Z,3.54
2022-11-16T07:34:54.604Z,3.54
2022-11-16T07:37:39.991Z,3.53
2022-11-16T07:40:26.574Z,3.51
2022-11-16T07:43:15.002Z,3.48
2022-11-16T07:46:46.068Z,3.49
2022-11-16T07:49:33.242Z,3.48
2022-11-16T07:52:24.857Z,3.45
2022-11-16T07:55:10.173Z,3.44
2022-11-16T07:57:56.726Z,3.45
2022-11-16T08:00:41.966Z,3.43
2022-11-16T08:03:34.365Z,3.43
2022-11-16T08:06:28.037Z,3.42
2022-11-16T08:09:14.386Z,3.44
2022-11-16T08:12:00.220Z,3.44
2022-11-16T08:14:45.786Z,3.45
2022-11-16T08:17:32.211Z,3.49
2022-11-16T08:20:18.187Z,3.49
2022-11-16T08:23:05.686Z,3.49
2022-11-16T08:26:01.347Z,3.50
2022-11-16T08:28:50.962Z,3.50
2022-11-16T08:31:38.287Z,3.51
2022-11-16T08:34:29.288Z,3.53
2022-11-16T08:37:18.897Z,3.57
2022-11-16T08:40:05.304Z,3.57
2022-11-16T08:42:57.235Z,3.58
2022-11-16T08:45:47.672Z,3.59
2022-11-16T08:48:34.408Z,3.60
2022-11-16T08:51:21.288Z,3.63
2022-11-16T08:54:13.273Z,3.65
2022-11-16T08:56:59.625Z,3.69
2022-11-16T08:59:46.981Z,3.72
2022-11-16T09:02:32.843Z,3.76
2022-11-16T09:05:18.460Z,3.79
2022-11-16T09:08:05.701Z,3.82
2022-11-16T09:10:51.473Z,3.88
2022-11-16T09:13:37.236Z,3.92
2022-11-16T09:16:24.035Z,3.96
2022-11-16T09:19:10.820Z,3.98
2022-11-16T09:21:56.586Z,4.00
2022-11-16T09:24:41.820Z,4.01
2022-11-16T09:27:27.460Z,4.02
2022-11-16T09:30:12.910Z,4.07
2022-11-16T09:32:59.148Z,4.09
2022-11-16T09:35:44.642Z,4.10
2022-11-16T09:38:54.221Z,4.12
2022-11-16T09:41:53.759Z,4.14
2022-11-16T09:44:41.958Z,4.15
2022-11-16T09:47:49.281Z,4.15
2022-11-16T09:50:54.690Z,4.15
2022-11-16T09:53:53.146Z,4.15
2022-11-16T09:56:41.782Z,4.17
2022-11-16T09:59:41.466Z,4.20
2022-11-16T10:02:47.091Z,4.22
2022-11-16T10:06:03.944Z,4.28
2022-11-16T10:08:52.120Z,4.31
2022-11-16T10:11:48.886Z,4.36
2022-11-16T10:15:04.873Z,4.38
2022-11-16T10:18:03.590Z,4.43
2022-11-16T10:21:07.423Z,4.45
2022-11-16T10:24:08.441Z,4.46
2022-11-16T10:27:08.061Z,4.46
2022-11-16T10:30:02.327Z,4.47
2022-11-16T10:32:59.569Z,4.49
2022-11-16T10:35:53.550Z,4.54
2022-11-16T10:38:40.293Z,4.56
2022-11-16T10:41:40.026Z,4.57
2022-11-16T10:44:34.375Z,4.60
2022-11-16T10:47:38.662Z,4.62
2022-11-16T10:50:37.834Z,4.64
2022-11-16T10:53:34.647Z,4.67
2022-11-16T10:56:31.871Z,4.71
2022-11-16T10:59:20.608Z,4.71
2022-11-16T11:02:25.011Z,4.71
2022-11-16T11:05:21.637Z,4.69
2022-11-16T11:08:11.431Z,4.68
2022-11-16T11:11:25.106Z,4.68
2022-11-16T11:14:15.716Z,4.73
2022-11-16T11:17:12.526Z,4.74
2022-11-16T11:20:05.608Z,4.77
2022-11-16T11:22:57.314Z,4.81
2022-11-16T11:25:55.753Z,4.82
2022-11-16T11:28:47.792Z,4.85
2022-11-16T11:31:44.335Z,4.88
2022-11-16T11:34:42.823Z,4.90
2022-11-16T11:37:34.216Z,4.89
2022-11-16T11:40:22.639Z,4.88
2022-11-16T11:43:22.860Z,4.88
2022-11-16T11:46:50.233Z,4.86
2022-11-16T11:49:40.308Z,4.87
2022-11-16T11:52:39.069Z,4.85
2022-11-16T11:55:24.926Z,4.83
2022-11-16T11:58:18.282Z,4.82
2022-11-16T12:01:41.506Z,4.85
2022-11-16T12:04:38.945Z,4.86
2022-11-16T12:07:42.121Z,4.88
2022-11-16T12:10:51.091Z,4.89
2022-11-16T12:14:08.930Z,4.93
2022-11-16T12:17:19.156Z,4.97
2022-11-16T12:20:37.736Z,4.99
2022-11-16T12:23:41.797Z,4.99
2022-11-16T12:26:43.586Z,5.04
2022-11-16T12:30:08.117Z,5.05
2022-11-16T12:33:18.020Z,5.07
2022-11-16T12:36:40.725Z,5.08
2022-11-16T12:39:58.097Z,5.10
2022-11-16T12:43:11.391Z,5.12
2022-11-16T12:46:10.455Z,5.13
2022-11-16T12:49:20.403Z,5.13
2022-11-16T12:52:09.078Z,5.16
2022-11-16T12:55:28.023Z,5.18
2022-11-16T12:58:16.919Z,5.17
2022-11-16T13:01:24.905Z,5.20
2022-11-16T13:04:24.133Z,5.21
2022-11-16T13:07:50.785Z,5.20
2022-11-16T13:10:43.080Z,5.21
2022-11-16T13:13:38.604Z,5.25
2022-11-16T13:16:24.880Z,5.23
2022-11-16T13:19:13.519Z,5.25
2022-11-16T13:22:10.547Z,5.27
2022-11-16T13:24:58.989Z,5.30
2022-11-16T13:28:05.486Z,5.33
2022-11-16T13:31:05.402Z,5.34
2022-11-16T13:33:58.921Z,5.35
2022-11-16T13:36:46.315Z,5.35
2022-11-16T13:39:50.487Z,5.35
2022-11-16T13:42:44.649Z,5.35
2022-11-16T13:45:42.136Z,5.37
2022-11-16T13:48:27.293Z,5.36
2022-11-16T13:51:23.160Z,5.37
2022-11-16T13:57:53.546Z,5.35
2022-11-16T14:00:40.550Z,5.34
2022-11-16T14:03:32.993Z,5.33
2022-11-16T14:06:18.906Z,5.32
2022-11-16T14:09:42.867Z,5.29
2022-11-16T14:12:54.030Z,5.28
2022-11-16T14:15:39.594Z,5.27
2022-11-16T14:18:34.201Z,5.27
2022-11-16T14:21:19.707Z,5.26
2022-11-16T14:24:36.181Z,5.25
2022-11-16T14:27:30.895Z,5.24
2022-11-16T14:30:26.482Z,5.23
2022-11-16T14:33:23.894Z,5.23
2022-11-16T14:36:10.655Z,5.22
2022-11-16T14:39:32.314Z,5.22
2022-11-16T14:42:21.915Z,5.23
2022-11-16T14:45:16.620Z,5.23
2022-11-16T14:48:15.916Z,5.21
2022-11-16T14:51:07.933Z,5.21
2022-11-16T14:53:57.661Z,5.21
2022-11-16T14:56:59.290Z,5.19
2022-11-16T14:59:44.680Z,5.18
2022-11-16T15:02:30.289Z,5.17
2022-11-16T15:05:18.874Z,5.17
2022-11-16T15:08:16.783Z,5.16
2022-11-16T15:11:02.903Z,5.16
2022-11-16T15:13:49.291Z,5.15
2022-11-16T15:16:52.048Z,5.16
2022-11-16T15:19:38.004Z,5.16
2022-11-16T15:22:27.345Z,5.14
2022-11-16T15:25:35.472Z,5.14
2022-11-16T15:28:23.128Z,5.15
2022-11-16T15:31:15.053Z,5.13
2022-11-16T15:34:01.682Z,5.12
2022-11-16T15:36:48.766Z,5.11
2022-11-16T15:39:36.502Z,5.11
2022-11-16T15:42:22.972Z,5.10
2022-11-16T15:45:20.938Z,5.11
2022-11-16T15:48:06.807Z,5.10
2022-11-16T15:51:27.371Z,5.09
2022-11-16T15:54:14.355Z,5.10
2022-11-16T15:57:08.960Z,5.10
2022-11-16T15:59:57.140Z,5.10
2022-11-16T16:02:44.670Z,5.10
2022-11-16T16:05:39.052Z,5.09
2022-11-16T16:08:38.672Z,5.11
2022-11-16T16:11:26.722Z,5.12
2022-11-16T16:14:25.539Z,5.13
2022-11-16T16:17:21.246Z,5.14
2022-11-16T16:20:07.613Z,5.16
2022-11-16T16:22:54.449Z,5.17
2022-11-16T16:25:40.036Z,5.18
2022-11-16T16:28:25.513Z,5.19
2022-11-16T16:31:12.298Z,5.20
2022-11-16T16:33:59.600Z,5.20
2022-11-16T16:36:44.677Z,5.21
2022-11-16T16:39:32.057Z,5.22
2022-11-16T16:42:18.091Z,5.23
2022-11-16T16:45:03.894Z,5.24
2022-11-16T16:47:49.348Z,5.27
2022-11-16T16:50:34.648Z,5.29
2022-11-16T16:53:20.236Z,5.30
2022-11-16T16:56:06.670Z,5.32
2022-11-16T16:58:52.258Z,5.31
2022-11-16T17:01:37.825Z,5.34
2022-11-16T17:04:23.358Z,5.35
2022-11-16T17:07:08.845Z,5.35
2022-11-16T17:09:54.259Z,5.34
2022-11-16T17:12:39.811Z,5.34
2022-11-16T17:15:26.057Z,5.36
2022-11-16T17:18:11.480Z,5.36
2022-11-16T17:21:03.786Z,5.36
2022-11-16T17:23:49.146Z,5.33
2022-11-16T17:26:34.557Z,5.34
2022-11-16T17:29:20.006Z,5.34
2022-11-16T17:32:07.235Z,5.33
2022-11-16T17:34:53.118Z,5.34
2022-11-16T17:37:38.328Z,5.34
2022-11-16T17:40:23.891Z,5.31
2022-11-16T17:43:09.321Z,5.33
2022-11-16T17:46:11.603Z,5.32
2022-11-16T17:48:56.883Z,5.34
2022-11-16T17:51:42.722Z,5.34
2022-11-16T17:54:27.993Z,5.34
2022-11-16T17:57:13.505Z,5.35
2022-11-16T17:59:58.789Z,5.35
2022-11-16T18:02:44.356Z,5.35
2022-11-16T18:05:30.305Z,5.34
2022-11-16T18:08:16.082Z,5.33
2022-11-16T18:11:15.907Z,5.34
2022-11-16T18:14:01.618Z,5.35
2022-11-16T18:16:48.017Z,5.36
2022-11-16T18:19:33.837Z,5.36
2022-11-16T18:22:19.454Z,5.38
2022-11-16T18:25:05.475Z,5.38
2022-11-16T18:27:54.952Z,5.39
2022-11-16T18:30:40.618Z,5.39
2022-11-16T18:33:30.401Z,5.41
2022-11-16T18:36:17.734Z,5.44
2022-11-16T18:39:03.146Z,5.45
2022-11-16T18:41:54.798Z,5.47
2022-11-16T18:44:40.826Z,5.50
2022-11-16T18:47:26.268Z,5.52
2022-11-16T18:50:18.928Z,5.54
2022-11-16T18:53:05.637Z,5.54
2022-11-16T18:55:57.807Z,5.54
2022-11-16T18:58:50.267Z,5.56
2022-11-16T19:01:36.917Z,5.57
2022-11-16T19:04:22.290Z,5.59
2022-11-16T19:07:07.970Z,5.60
2022-11-16T19:09:53.667Z,5.62
2022-11-16T19:12:39.140Z,5.64
2022-11-16T19:15:25.630Z,5.65
2022-11-16T19:18:26.042Z,5.67
2022-11-16T19:21:18.494Z,5.67
2022-11-16T19:24:06.928Z,5.67
2022-11-16T19:26:52.876Z,5.67
2022-11-16T19:29:38.338Z,5.67
2022-11-16T19:32:24.020Z,5.66
2022-11-16T19:35:12.352Z,5.64
2022-11-16T19:37:58.559Z,5.65
2022-11-16T19:40:43.904Z,5.66
2022-11-16T19:43:29.310Z,5.67
2022-11-16T19:46:21.516Z,5.69
2022-11-16T19:49:09.011Z,5.70
2022-11-16T19:51:54.237Z,5.71
2022-11-16T19:54:39.645Z,5.71
2022-11-16T19:57:25.082Z,5.71
2022-11-16T20:00:11.300Z,5.72
2022-11-16T20:02:57.970Z,5.71
2022-11-16T20:05:43.710Z,5.72
2022-11-16T20:08:29.256Z,5.72
2022-11-16T20:11:17.109Z,5.70
2022-11-16T20:14:05.342Z,5.70
2022-11-16T20:16:51.235Z,5.69
2022-11-16T20:19:37.730Z,5.68
2022-11-16T20:22:24.762Z,5.65
2022-11-16T20:25:11.328Z,5.60
2022-11-16T20:27:56.786Z,5.58
2022-11-16T20:30:48.785Z,5.54
2022-11-16T20:33:35.109Z,5.53
2022-11-16T20:36:25.527Z,5.51
2022-11-16T20:39:16.146Z,5.45
2022-11-16T20:42:01.436Z,5.42
2022-11-16T20:44:46.849Z,5.42
2022-11-16T20:47:32.200Z,5.37
2022-11-16T20:50:19.546Z,5.35
2022-11-16T20:53:04.872Z,5.27
2022-11-16T20:55:50.431Z,5.21
2022-11-16T20:58:35.943Z,5.16
2022-11-16T21:01:28.603Z,5.11
2022-11-16T21:04:15.361Z,5.07
2022-11-16T21:07:00.802Z,4.98
2022-11-16T21:10:04.907Z,4.89
2022-11-16T21:13:09.116Z,4.80
2022-11-16T21:15:58.899Z,4.70
2022-11-16T21:18:44.132Z,4.61
2022-11-16T21:21:30.348Z,4.48
2022-11-16T21:24:16.251Z,4.28
2022-11-16T21:27:01.738Z,4.10
2022-11-16T21:29:47.116Z,3.98
2022-11-16T21:32:32.633Z,3.90
2022-11-16T21:35:18.417Z,3.81
2022-11-16T21:38:04.143Z,3.71
2022-11-16T21:40:50.093Z,3.61
2022-11-16T21:43:37.252Z,3.51
2022-11-16T21:46:25.958Z,3.47
2022-11-16T21:49:11.408Z,3.44
2022-11-16T21:51:56.881Z,3.41
2022-11-16T21:54:48.130Z,3.41
2022-11-16T21:57:33.872Z,3.41
2022-11-16T22:00:20.198Z,3.41
2022-11-16T22:03:06.011Z,3.42
2022-11-16T22:06:18.062Z,3.42
2022-11-16T22:09:04.357Z,3.39
2022-11-16T22:11:49.553Z,3.35
2022-11-16T22:14:35.126Z,3.34
2022-11-16T22:17:21.656Z,3.33
2022-11-16T22:20:07.757Z,3.33
2022-11-16T22:22:53.365Z,3.36
2022-11-16T22:25:39.344Z,3.39
2022-11-16T22:28:24.838Z,3.45
2022-11-16T22:31:12.406Z,3.49
2022-11-16T22:33:57.522Z,3.52
2022-11-16T22:36:43.222Z,3.56
2022-11-16T22:39:28.798Z,3.60
2022-11-16T22:42:14.424Z,3.62
2022-11-16T22:45:00.185Z,3.63
2022-11-16T22:47:47.007Z,3.63
2022-11-16T22:50:34.284Z,3.65
2022-11-16T22:53:19.936Z,3.64
2022-11-16T22:56:07.572Z,3.61
2022-11-16T22:58:53.168Z,3.59
2022-11-16T23:01:38.454Z,3.58
2022-11-16T23:04:23.968Z,3.56
2022-11-16T23:07:09.559Z,3.53
2022-11-16T23:09:54.852Z,3.49
2022-11-16T23:12:58.961Z,3.39
2022-11-16T23:15:50.622Z,3.34
2022-11-16T23:18:36.017Z,3.30
2022-11-16T23:21:40.975Z,3.24
2022-11-16T23:24:45.798Z,3.19
2022-11-16T23:27:56.474Z,3.14
2022-11-16T23:30:41.983Z,3.06
2022-11-16T23:33:43.983Z,3.00
2022-11-16T23:36:29.774Z,2.86
2022-11-16T23:39:15.357Z,2.76
2022-11-16T23:42:19.691Z,2.68
2022-11-16T23:45:05.331Z,2.62
2022-11-16T23:47:50.656Z,2.53
2022-11-16T23:50:36.329Z,2.38
2022-11-16T23:53:21.502Z,2.32
2022-11-16T23:56:07.312Z,2.29
2022-11-16T23:58:56.353Z,2.26
